sensor_id;sensor_type;location;lat;lon;timestamp;P1;durP1;ratioP1;P2;durP2;ratioP2
3369;SDS011;42042;51.948;7.628;2023-06-26T00:00:51;10.47;;;9.47;;
3369;SDS011;42042;51.948;7.628;2023-06-26T00:03:18;10.23;;;9.30;;
3369;SDS011;42042;51.948;7.628;2023-06-26T00:05:45;11.67;;;10.10;;
3369;SDS011;42042;51.948;7.628;2023-06-26T00:08:12;10.13;;;9.17;;
3369;SDS011;42042;51.948;7.628;2023-06-26T00:10:40;13.27;;;9.63;;
3369;SDS011;42042;51.948;7.628;2023-06-26T00:13:07;10.20;;;9.30;;
3369;SDS011;42042;51.948;7.628;2023-06-26T00:15:37;10.50;;;9.50;;
3369;SDS011;42042;51.948;7.628;2023-06-26T00:18:06;11.20;;;9.87;;
3369;SDS011;42042;51.948;7.628;2023-06-26T00:20:34;10.40;;;9.50;;
3369;SDS011;42042;51.948;7.628;2023-06-26T00:23:01;10.03;;;8.97;;
3369;SDS011;42042;51.948;7.628;2023-06-26T00:25:29;11.00;;;10.10;;
3369;SDS011;42042;51.948;7.628;2023-06-26T00:27:56;10.23;;;9.33;;
3369;SDS011;42042;51.948;7.628;2023-06-26T00:30:23;10.53;;;9.63;;
3369;SDS011;42042;51.948;7.628;2023-06-26T00:32:50;10.63;;;9.60;;
3369;SDS011;42042;51.948;7.628;2023-06-26T00:35:19;11.50;;;10.37;;
3369;SDS011;42042;51.948;7.628;2023-06-26T00:37:46;10.67;;;9.73;;
3369;SDS011;42042;51.948;7.628;2023-06-26T00:40:13;11.73;;;10.53;;
3369;SDS011;42042;51.948;7.628;2023-06-26T00:42:40;10.87;;;9.97;;
3369;SDS011;42042;51.948;7.628;2023-06-26T00:45:08;10.17;;;9.30;;
3369;SDS011;42042;51.948;7.628;2023-06-26T00:47:35;11.77;;;10.57;;
3369;SDS011;42042;51.948;7.628;2023-06-26T00:50:03;10.40;;;9.50;;
3369;SDS011;42042;51.948;7.628;2023-06-26T00:52:32;11.43;;;10.43;;
3369;SDS011;42042;51.948;7.628;2023-06-26T00:54:59;11.47;;;10.47;;
3369;SDS011;42042;51.948;7.628;2023-06-26T00:57:27;10.60;;;9.63;;
3369;SDS011;42042;51.948;7.628;2023-06-26T00:59:54;11.47;;;10.37;;
3369;SDS011;42042;51.948;7.628;2023-06-26T01:02:21;11.30;;;10.40;;
3369;SDS011;42042;51.948;7.628;2023-06-26T01:04:48;10.80;;;9.80;;
3369;SDS011;42042;51.948;7.628;2023-06-26T01:07:16;11.60;;;10.60;;
3369;SDS011;42042;51.948;7.628;2023-06-26T01:09:45;11.30;;;10.17;;
3369;SDS011;42042;51.948;7.628;2023-06-26T01:12:13;11.30;;;10.30;;
3369;SDS011;42042;51.948;7.628;2023-06-26T01:14:40;12.10;;;10.83;;
3369;SDS011;42042;51.948;7.628;2023-06-26T01:17:07;11.60;;;10.60;;
3369;SDS011;42042;51.948;7.628;2023-06-26T01:19:37;12.07;;;10.70;;
3369;SDS011;42042;51.948;7.628;2023-06-26T01:22:07;11.27;;;10.10;;
3369;SDS011;42042;51.948;7.628;2023-06-26T01:24:42;11.77;;;10.53;;
3369;SDS011;42042;51.948;7.628;2023-06-26T01:27:13;11.97;;;10.87;;
3369;SDS011;42042;51.948;7.628;2023-06-26T01:29:41;11.70;;;10.60;;
3369;SDS011;42042;51.948;7.628;2023-06-26T01:32:08;11.40;;;10.50;;
3369;SDS011;42042;51.948;7.628;2023-06-26T01:34:36;11.20;;;10.30;;
3369;SDS011;42042;51.948;7.628;2023-06-26T01:37:03;12.10;;;10.87;;
3369;SDS011;42042;51.948;7.628;2023-06-26T01:39:30;11.50;;;10.40;;
3369;SDS011;42042;51.948;7.628;2023-06-26T01:41:57;11.63;;;10.63;;
3369;SDS011;42042;51.948;7.628;2023-06-26T01:44:28;11.23;;;10.33;;
3369;SDS011;42042;51.948;7.628;2023-06-26T01:46:58;12.43;;;11.33;;
3369;SDS011;42042;51.948;7.628;2023-06-26T01:49:29;11.47;;;10.47;;
3369;SDS011;42042;51.948;7.628;2023-06-26T01:51:58;12.23;;;11.07;;
3369;SDS011;42042;51.948;7.628;2023-06-26T01:54:28;12.40;;;11.20;;
3369;SDS011;42042;51.948;7.628;2023-06-26T01:56:57;12.13;;;10.93;;
3369;SDS011;42042;51.948;7.628;2023-06-26T01:59:25;11.90;;;10.90;;
3369;SDS011;42042;51.948;7.628;2023-06-26T02:01:54;11.73;;;10.73;;
3369;SDS011;42042;51.948;7.628;2023-06-26T02:04:21;13.17;;;10.50;;
3369;SDS011;42042;51.948;7.628;2023-06-26T02:06:49;11.63;;;10.67;;
3369;SDS011;42042;51.948;7.628;2023-06-26T02:09:16;11.60;;;10.40;;
3369;SDS011;42042;51.948;7.628;2023-06-26T02:11:43;11.57;;;10.47;;
3369;SDS011;42042;51.948;7.628;2023-06-26T02:14:10;12.20;;;11.00;;
3369;SDS011;42042;51.948;7.628;2023-06-26T02:16:37;12.70;;;10.63;;
3369;SDS011;42042;51.948;7.628;2023-06-26T02:19:06;11.93;;;10.83;;
3369;SDS011;42042;51.948;7.628;2023-06-26T02:21:33;11.87;;;10.77;;
3369;SDS011;42042;51.948;7.628;2023-06-26T02:24:00;12.27;;;11.17;;
3369;SDS011;42042;51.948;7.628;2023-06-26T02:26:28;12.63;;;11.50;;
3369;SDS011;42042;51.948;7.628;2023-06-26T02:28:55;11.50;;;10.43;;
3369;SDS011;42042;51.948;7.628;2023-06-26T02:31:22;13.17;;;10.43;;
3369;SDS011;42042;51.948;7.628;2023-06-26T02:33:49;10.73;;;9.73;;
3369;SDS011;42042;51.948;7.628;2023-06-26T02:36:18;12.07;;;10.90;;
3369;SDS011;42042;51.948;7.628;2023-06-26T02:38:45;12.83;;;11.53;;
3369;SDS011;42042;51.948;7.628;2023-06-26T02:41:12;12.80;;;10.80;;
3369;SDS011;42042;51.948;7.628;2023-06-26T02:43:39;11.73;;;10.40;;
3369;SDS011;42042;51.948;7.628;2023-06-26T02:46:06;10.47;;;9.47;;
3369;SDS011;42042;51.948;7.628;2023-06-26T02:48:33;11.20;;;10.20;;
3369;SDS011;42042;51.948;7.628;2023-06-26T02:51:01;10.53;;;9.53;;
3369;SDS011;42042;51.948;7.628;2023-06-26T02:53:29;10.73;;;9.73;;
3369;SDS011;42042;51.948;7.628;2023-06-26T02:55:57;12.03;;;10.63;;
3369;SDS011;42042;51.948;7.628;2023-06-26T02:58:24;10.10;;;9.20;;
3369;SDS011;42042;51.948;7.628;2023-06-26T03:00:51;11.23;;;10.00;;
3369;SDS011;42042;51.948;7.628;2023-06-26T03:03:19;11.37;;;10.33;;
3369;SDS011;42042;51.948;7.628;2023-06-26T03:05:46;10.90;;;9.90;;
3369;SDS011;42042;51.948;7.628;2023-06-26T03:08:13;10.93;;;9.90;;
3369;SDS011;42042;51.948;7.628;2023-06-26T03:10:42;12.20;;;10.80;;
3369;SDS011;42042;51.948;7.628;2023-06-26T03:13:09;10.47;;;9.50;;
3369;SDS011;42042;51.948;7.628;2023-06-26T03:15:37;10.37;;;9.37;;
3369;SDS011;42042;51.948;7.628;2023-06-26T03:18:04;9.70;;;8.80;;
3369;SDS011;42042;51.948;7.628;2023-06-26T03:20:31;11.60;;;10.50;;
3369;SDS011;42042;51.948;7.628;2023-06-26T03:22:58;13.23;;;10.27;;
3369;SDS011;42042;51.948;7.628;2023-06-26T03:25:25;13.00;;;9.90;;
3369;SDS011;42042;51.948;7.628;2023-06-26T03:27:54;10.40;;;9.40;;
3369;SDS011;42042;51.948;7.628;2023-06-26T03:30:21;10.70;;;9.70;;
3369;SDS011;42042;51.948;7.628;2023-06-26T03:32:48;11.03;;;9.83;;
3369;SDS011;42042;51.948;7.628;2023-06-26T03:35:16;11.27;;;10.23;;
3369;SDS011;42042;51.948;7.628;2023-06-26T03:37:43;10.40;;;9.43;;
3369;SDS011;42042;51.948;7.628;2023-06-26T03:40:10;11.17;;;10.07;;
3369;SDS011;42042;51.948;7.628;2023-06-26T03:42:37;11.00;;;10.00;;
3369;SDS011;42042;51.948;7.628;2023-06-26T03:45:06;13.70;;;9.73;;
3369;SDS011;42042;51.948;7.628;2023-06-26T03:47:34;11.23;;;10.10;;
3369;SDS011;42042;51.948;7.628;2023-06-26T03:50:01;11.23;;;10.07;;
3369;SDS011;42042;51.948;7.628;2023-06-26T03:52:28;11.83;;;9.97;;
3369;SDS011;42042;51.948;7.628;2023-06-26T03:54:55;11.77;;;9.93;;
3369;SDS011;42042;51.948;7.628;2023-06-26T03:57:23;12.70;;;9.50;;
3369;SDS011;42042;51.948;7.628;2023-06-26T03:59:50;11.27;;;10.17;;
3369;SDS011;42042;51.948;7.628;2023-06-26T04:02:18;13.47;;;9.27;;
3369;SDS011;42042;51.948;7.628;2023-06-26T04:04:46;10.00;;;8.87;;
3369;SDS011;42042;51.948;7.628;2023-06-26T04:07:13;10.87;;;9.47;;
3369;SDS011;42042;51.948;7.628;2023-06-26T04:09:40;10.83;;;9.43;;
3369;SDS011;42042;51.948;7.628;2023-06-26T04:12:07;10.30;;;9.30;;
3369;SDS011;42042;51.948;7.628;2023-06-26T04:14:34;11.23;;;10.13;;
3369;SDS011;42042;51.948;7.628;2023-06-26T04:17:02;11.20;;;9.40;;
3369;SDS011;42042;51.948;7.628;2023-06-26T04:19:30;15.90;;;9.20;;
3369;SDS011;42042;51.948;7.628;2023-06-26T04:21:58;12.17;;;10.47;;
3369;SDS011;42042;51.948;7.628;2023-06-26T04:24:25;9.83;;;8.93;;
3369;SDS011;42042;51.948;7.628;2023-06-26T04:26:52;11.30;;;9.77;;
3369;SDS011;42042;51.948;7.628;2023-06-26T04:29:22;11.10;;;9.97;;
3369;SDS011;42042;51.948;7.628;2023-06-26T04:31:50;10.20;;;9.30;;
3369;SDS011;42042;51.948;7.628;2023-06-26T04:34:17;9.20;;;8.40;;
3369;SDS011;42042;51.948;7.628;2023-06-26T04:36:46;10.70;;;9.63;;
3369;SDS011;42042;51.948;7.628;2023-06-26T04:39:13;13.40;;;10.33;;
3369;SDS011;42042;51.948;7.628;2023-06-26T04:41:40;15.63;;;9.50;;
3369;SDS011;42042;51.948;7.628;2023-06-26T04:44:08;10.47;;;9.47;;
3369;SDS011;42042;51.948;7.628;2023-06-26T04:46:36;13.60;;;9.43;;
3369;SDS011;42042;51.948;7.628;2023-06-26T04:49:06;13.60;;;9.53;;
3369;SDS011;42042;51.948;7.628;2023-06-26T04:51:33;10.40;;;9.50;;
3369;SDS011;42042;51.948;7.628;2023-06-26T04:54:06;13.43;;;9.47;;
3369;SDS011;42042;51.948;7.628;2023-06-26T04:56:34;14.00;;;9.20;;
3369;SDS011;42042;51.948;7.628;2023-06-26T04:59:01;10.93;;;9.73;;
3369;SDS011;42042;51.948;7.628;2023-06-26T05:01:28;14.00;;;9.73;;
3369;SDS011;42042;51.948;7.628;2023-06-26T05:03:57;10.80;;;9.70;;
3369;SDS011;42042;51.948;7.628;2023-06-26T05:06:24;12.77;;;10.40;;
3369;SDS011;42042;51.948;7.628;2023-06-26T05:08:51;12.83;;;9.33;;
3369;SDS011;42042;51.948;7.628;2023-06-26T05:11:20;11.93;;;10.83;;
3369;SDS011;42042;51.948;7.628;2023-06-26T05:13:48;11.33;;;10.20;;
3369;SDS011;42042;51.948;7.628;2023-06-26T05:16:15;12.03;;;10.93;;
3369;SDS011;42042;51.948;7.628;2023-06-26T05:18:42;13.87;;;12.40;;
3369;SDS011;42042;51.948;7.628;2023-06-26T05:21:09;21.13;;;11.40;;
3369;SDS011;42042;51.948;7.628;2023-06-26T05:23:37;18.90;;;12.67;;
3369;SDS011;42042;51.948;7.628;2023-06-26T05:26:04;14.27;;;12.77;;
3369;SDS011;42042;51.948;7.628;2023-06-26T05:28:33;15.20;;;11.90;;
3369;SDS011;42042;51.948;7.628;2023-06-26T05:31:01;13.60;;;12.30;;
3369;SDS011;42042;51.948;7.628;2023-06-26T05:33:30;23.80;;;14.87;;
3369;SDS011;42042;51.948;7.628;2023-06-26T05:35:58;12.90;;;11.60;;
3369;SDS011;42042;51.948;7.628;2023-06-26T05:38:26;14.07;;;12.63;;
3369;SDS011;42042;51.948;7.628;2023-06-26T05:40:53;13.10;;;11.67;;
3369;SDS011;42042;51.948;7.628;2023-06-26T05:43:21;13.30;;;11.60;;
3369;SDS011;42042;51.948;7.628;2023-06-26T05:45:49;15.47;;;12.10;;
3369;SDS011;42042;51.948;7.628;2023-06-26T05:48:17;12.10;;;10.90;;
3369;SDS011;42042;51.948;7.628;2023-06-26T05:50:44;13.70;;;11.90;;
3369;SDS011;42042;51.948;7.628;2023-06-26T05:53:11;12.50;;;11.27;;
3369;SDS011;42042;51.948;7.628;2023-06-26T05:55:39;11.77;;;10.47;;
3369;SDS011;42042;51.948;7.628;2023-06-26T05:58:07;12.17;;;10.83;;
3369;SDS011;42042;51.948;7.628;2023-06-26T06:00:36;13.40;;;10.83;;
3369;SDS011;42042;51.948;7.628;2023-06-26T06:03:05;14.47;;;11.50;;
3369;SDS011;42042;51.948;7.628;2023-06-26T06:05:32;13.27;;;11.67;;
3369;SDS011;42042;51.948;7.628;2023-06-26T06:07:59;12.20;;;10.90;;
3369;SDS011;42042;51.948;7.628;2023-06-26T06:10:27;12.27;;;10.60;;
3369;SDS011;42042;51.948;7.628;2023-06-26T06:12:54;15.33;;;11.23;;
3369;SDS011;42042;51.948;7.628;2023-06-26T06:15:21;17.80;;;12.00;;
3369;SDS011;42042;51.948;7.628;2023-06-26T06:17:48;14.03;;;10.53;;
3369;SDS011;42042;51.948;7.628;2023-06-26T06:20:17;12.13;;;10.83;;
3369;SDS011;42042;51.948;7.628;2023-06-26T06:22:46;11.10;;;9.20;;
3369;SDS011;42042;51.948;7.628;2023-06-26T06:25:14;11.50;;;9.27;;
3369;SDS011;42042;51.948;7.628;2023-06-26T06:27:41;9.53;;;8.43;;
3369;SDS011;42042;51.948;7.628;2023-06-26T06:30:09;11.63;;;7.80;;
3369;SDS011;42042;51.948;7.628;2023-06-26T06:32:36;9.17;;;7.80;;
3369;SDS011;42042;51.948;7.628;2023-06-26T06:35:03;10.10;;;8.73;;
3369;SDS011;42042;51.948;7.628;2023-06-26T06:37:36;15.13;;;9.27;;
3369;SDS011;42042;51.948;7.628;2023-06-26T06:40:03;9.33;;;7.67;;
3369;SDS011;42042;51.948;7.628;2023-06-26T06:42:31;8.93;;;8.03;;
3369;SDS011;42042;51.948;7.628;2023-06-26T06:45:00;10.03;;;8.03;;
3369;SDS011;42042;51.948;7.628;2023-06-26T06:47:27;8.00;;;7.20;;
3369;SDS011;42042;51.948;7.628;2023-06-26T06:49:54;11.40;;;8.77;;
3369;SDS011;42042;51.948;7.628;2023-06-26T06:52:21;12.30;;;8.07;;
3369;SDS011;42042;51.948;7.628;2023-06-26T06:54:53;11.63;;;7.53;;
3369;SDS011;42042;51.948;7.628;2023-06-26T06:57:20;10.37;;;6.90;;
3369;SDS011;42042;51.948;7.628;2023-06-26T06:59:48;11.33;;;7.63;;
3369;SDS011;42042;51.948;7.628;2023-06-26T07:02:15;9.20;;;6.53;;
3369;SDS011;42042;51.948;7.628;2023-06-26T07:04:43;13.53;;;8.30;;
3369;SDS011;42042;51.948;7.628;2023-06-26T07:07:10;8.47;;;6.30;;
3369;SDS011;42042;51.948;7.628;2023-06-26T07:09:38;14.50;;;7.70;;
3369;SDS011;42042;51.948;7.628;2023-06-26T07:12:07;13.10;;;7.30;;
3369;SDS011;42042;51.948;7.628;2023-06-26T07:14:34;13.60;;;6.60;;
3369;SDS011;42042;51.948;7.628;2023-06-26T07:17:01;15.43;;;7.90;;
3369;SDS011;42042;51.948;7.628;2023-06-26T07:19:28;14.03;;;7.57;;
3369;SDS011;42042;51.948;7.628;2023-06-26T07:21:56;8.73;;;7.07;;
3369;SDS011;42042;51.948;7.628;2023-06-26T07:24:23;14.73;;;8.03;;
3369;SDS011;42042;51.948;7.628;2023-06-26T07:26:50;13.53;;;7.70;;
3369;SDS011;42042;51.948;7.628;2023-06-26T07:29:19;12.17;;;8.00;;
3369;SDS011;42042;51.948;7.628;2023-06-26T07:31:46;11.47;;;8.30;;
3369;SDS011;42042;51.948;7.628;2023-06-26T07:34:13;12.97;;;7.40;;
3369;SDS011;42042;51.948;7.628;2023-06-26T07:36:40;11.20;;;8.17;;
3369;SDS011;42042;51.948;7.628;2023-06-26T07:39:07;10.73;;;7.50;;
3369;SDS011;42042;51.948;7.628;2023-06-26T07:41:34;12.00;;;8.23;;
3369;SDS011;42042;51.948;7.628;2023-06-26T07:44:02;13.60;;;8.27;;
3369;SDS011;42042;51.948;7.628;2023-06-26T07:46:30;14.60;;;7.63;;
3369;SDS011;42042;51.948;7.628;2023-06-26T07:48:58;8.07;;;7.07;;
3369;SDS011;42042;51.948;7.628;2023-06-26T07:51:25;18.97;;;7.30;;
3369;SDS011;42042;51.948;7.628;2023-06-26T07:53:52;10.80;;;7.67;;
3369;SDS011;42042;51.948;7.628;2023-06-26T07:56:19;13.13;;;7.53;;
3369;SDS011;42042;51.948;7.628;2023-06-26T07:58:46;8.60;;;6.30;;
3369;SDS011;42042;51.948;7.628;2023-06-26T08:01:13;15.23;;;7.60;;
3369;SDS011;42042;51.948;7.628;2023-06-26T08:03:42;12.43;;;6.90;;
3369;SDS011;42042;51.948;7.628;2023-06-26T08:06:09;11.90;;;7.40;;
3369;SDS011;42042;51.948;7.628;2023-06-26T08:08:36;10.73;;;6.70;;
3369;SDS011;42042;51.948;7.628;2023-06-26T08:11:03;13.43;;;7.33;;
3369;SDS011;42042;51.948;7.628;2023-06-26T08:13:31;12.17;;;7.33;;
3369;SDS011;42042;51.948;7.628;2023-06-26T08:15:58;10.83;;;7.60;;
3369;SDS011;42042;51.948;7.628;2023-06-26T08:18:25;10.63;;;8.50;;
3369;SDS011;42042;51.948;7.628;2023-06-26T08:20:54;12.63;;;6.90;;
3369;SDS011;42042;51.948;7.628;2023-06-26T08:23:22;11.03;;;7.77;;
3369;SDS011;42042;51.948;7.628;2023-06-26T08:25:49;10.57;;;6.90;;
3369;SDS011;42042;51.948;7.628;2023-06-26T08:28:16;12.43;;;6.40;;
3369;SDS011;42042;51.948;7.628;2023-06-26T08:30:43;10.57;;;5.60;;
3369;SDS011;42042;51.948;7.628;2023-06-26T08:33:11;19.97;;;7.70;;
3369;SDS011;42042;51.948;7.628;2023-06-26T08:35:38;15.07;;;7.27;;
3369;SDS011;42042;51.948;7.628;2023-06-26T08:38:07;10.43;;;7.07;;
3369;SDS011;42042;51.948;7.628;2023-06-26T08:40:34;6.47;;;5.83;;
3369;SDS011;42042;51.948;7.628;2023-06-26T08:43:03;12.90;;;7.00;;
3369;SDS011;42042;51.948;7.628;2023-06-26T08:45:30;12.13;;;6.50;;
3369;SDS011;42042;51.948;7.628;2023-06-26T08:47:59;11.77;;;7.20;;
3369;SDS011;42042;51.948;7.628;2023-06-26T08:50:27;8.07;;;6.97;;
3369;SDS011;42042;51.948;7.628;2023-06-26T08:52:58;15.53;;;7.63;;
3369;SDS011;42042;51.948;7.628;2023-06-26T08:55:31;12.83;;;8.20;;
3369;SDS011;42042;51.948;7.628;2023-06-26T08:57:59;15.20;;;6.57;;
3369;SDS011;42042;51.948;7.628;2023-06-26T09:00:26;15.00;;;7.20;;
3369;SDS011;42042;51.948;7.628;2023-06-26T09:02:54;6.90;;;5.73;;
3369;SDS011;42042;51.948;7.628;2023-06-26T09:05:22;9.23;;;6.20;;
3369;SDS011;42042;51.948;7.628;2023-06-26T09:07:49;9.60;;;6.63;;
3369;SDS011;42042;51.948;7.628;2023-06-26T09:10:20;13.47;;;6.47;;
3369;SDS011;42042;51.948;7.628;2023-06-26T09:12:49;8.60;;;6.57;;
3369;SDS011;42042;51.948;7.628;2023-06-26T09:15:18;8.53;;;5.13;;
3369;SDS011;42042;51.948;7.628;2023-06-26T09:17:48;8.63;;;5.23;;
3369;SDS011;42042;51.948;7.628;2023-06-26T09:20:15;12.40;;;5.97;;
3369;SDS011;42042;51.948;7.628;2023-06-26T09:22:42;8.47;;;6.07;;
3369;SDS011;42042;51.948;7.628;2023-06-26T09:25:10;12.97;;;6.40;;
3369;SDS011;42042;51.948;7.628;2023-06-26T09:27:37;9.23;;;6.93;;
3369;SDS011;42042;51.948;7.628;2023-06-26T09:30:06;10.20;;;6.30;;
3369;SDS011;42042;51.948;7.628;2023-06-26T09:32:34;9.27;;;6.40;;
3369;SDS011;42042;51.948;7.628;2023-06-26T09:35:02;9.50;;;5.80;;
3369;SDS011;42042;51.948;7.628;2023-06-26T09:37:29;7.33;;;5.90;;
3369;SDS011;42042;51.948;7.628;2023-06-26T09:39:57;7.50;;;5.63;;
3369;SDS011;42042;51.948;7.628;2023-06-26T09:42:24;18.00;;;6.40;;
3369;SDS011;42042;51.948;7.628;2023-06-26T09:44:51;8.73;;;5.03;;
3369;SDS011;42042;51.948;7.628;2023-06-26T09:47:21;10.10;;;5.30;;
3369;SDS011;42042;51.948;7.628;2023-06-26T09:49:48;9.93;;;5.50;;
3369;SDS011;42042;51.948;7.628;2023-06-26T09:52:17;8.07;;;5.20;;
3369;SDS011;42042;51.948;7.628;2023-06-26T09:54:45;9.97;;;6.13;;
3369;SDS011;42042;51.948;7.628;2023-06-26T09:57:13;12.43;;;5.13;;
3369;SDS011;42042;51.948;7.628;2023-06-26T09:59:40;8.60;;;5.03;;
3369;SDS011;42042;51.948;7.628;2023-06-26T10:02:07;9.63;;;6.10;;
3369;SDS011;42042;51.948;7.628;2023-06-26T10:04:37;6.37;;;5.10;;
3369;SDS011;42042;51.948;7.628;2023-06-26T10:07:06;8.33;;;4.90;;
3369;SDS011;42042;51.948;7.628;2023-06-26T10:09:33;8.50;;;5.33;;
3369;SDS011;42042;51.948;7.628;2023-06-26T10:12:05;6.00;;;4.07;;
3369;SDS011;42042;51.948;7.628;2023-06-26T10:14:34;8.23;;;4.93;;
3369;SDS011;42042;51.948;7.628;2023-06-26T10:17:03;5.93;;;4.30;;
3369;SDS011;42042;51.948;7.628;2023-06-26T10:19:30;5.13;;;3.77;;
3369;SDS011;42042;51.948;7.628;2023-06-26T10:22:00;5.30;;;4.80;;
3369;SDS011;42042;51.948;7.628;2023-06-26T10:24:29;5.00;;;4.30;;
3369;SDS011;42042;51.948;7.628;2023-06-26T10:26:57;4.90;;;3.50;;
3369;SDS011;42042;51.948;7.628;2023-06-26T10:29:26;5.13;;;3.60;;
3369;SDS011;42042;51.948;7.628;2023-06-26T10:31:54;8.73;;;5.10;;
3369;SDS011;42042;51.948;7.628;2023-06-26T10:34:22;8.70;;;3.77;;
3369;SDS011;42042;51.948;7.628;2023-06-26T10:36:59;4.63;;;4.20;;
3369;SDS011;42042;51.948;7.628;2023-06-26T10:39:27;4.47;;;3.97;;
3369;SDS011;42042;51.948;7.628;2023-06-26T10:41:54;7.20;;;3.93;;
3369;SDS011;42042;51.948;7.628;2023-06-26T10:44:22;5.83;;;4.10;;
3369;SDS011;42042;51.948;7.628;2023-06-26T10:46:49;4.53;;;4.10;;
3369;SDS011;42042;51.948;7.628;2023-06-26T10:49:18;5.07;;;3.93;;
3369;SDS011;42042;51.948;7.628;2023-06-26T10:51:45;4.23;;;3.83;;
3369;SDS011;42042;51.948;7.628;2023-06-26T10:54:16;4.70;;;3.60;;
3369;SDS011;42042;51.948;7.628;2023-06-26T10:56:44;4.80;;;3.67;;
3369;SDS011;42042;51.948;7.628;2023-06-26T10:59:13;3.90;;;3.37;;
3369;SDS011;42042;51.948;7.628;2023-06-26T11:01:41;3.90;;;3.27;;
3369;SDS011;42042;51.948;7.628;2023-06-26T11:04:08;4.83;;;3.40;;
3369;SDS011;42042;51.948;7.628;2023-06-26T11:06:37;5.57;;;3.73;;
3369;SDS011;42042;51.948;7.628;2023-06-26T11:09:08;3.83;;;3.30;;
3369;SDS011;42042;51.948;7.628;2023-06-26T11:11:59;9.40;;;3.37;;
3369;SDS011;42042;51.948;7.628;2023-06-26T11:14:33;3.90;;;3.50;;
3369;SDS011;42042;51.948;7.628;2023-06-26T11:17:03;4.73;;;3.43;;
3369;SDS011;42042;51.948;7.628;2023-06-26T11:19:31;4.70;;;3.60;;
3369;SDS011;42042;51.948;7.628;2023-06-26T11:21:58;5.90;;;3.70;;
3369;SDS011;42042;51.948;7.628;2023-06-26T11:24:26;3.90;;;3.53;;
3369;SDS011;42042;51.948;7.628;2023-06-26T11:26:53;5.40;;;3.27;;
3369;SDS011;42042;51.948;7.628;2023-06-26T11:29:22;3.67;;;3.33;;
3369;SDS011;42042;51.948;7.628;2023-06-26T11:31:49;5.33;;;4.30;;
3369;SDS011;42042;51.948;7.628;2023-06-26T11:34:25;3.43;;;3.13;;
3369;SDS011;42042;51.948;7.628;2023-06-26T11:36:56;7.93;;;3.77;;
3369;SDS011;42042;51.948;7.628;2023-06-26T11:39:26;4.50;;;3.70;;
3369;SDS011;42042;51.948;7.628;2023-06-26T11:41:53;4.70;;;3.70;;
3369;SDS011;42042;51.948;7.628;2023-06-26T11:44:22;4.70;;;3.17;;
3369;SDS011;42042;51.948;7.628;2023-06-26T11:46:51;6.20;;;3.87;;
3369;SDS011;42042;51.948;7.628;2023-06-26T11:49:20;5.20;;;4.13;;
3369;SDS011;42042;51.948;7.628;2023-06-26T11:51:50;7.97;;;4.13;;
3369;SDS011;42042;51.948;7.628;2023-06-26T11:54:22;6.07;;;4.07;;
3369;SDS011;42042;51.948;7.628;2023-06-26T11:56:56;4.33;;;3.60;;
3369;SDS011;42042;51.948;7.628;2023-06-26T11:59:31;5.97;;;4.40;;
3369;SDS011;42042;51.948;7.628;2023-06-26T12:01:58;4.30;;;3.80;;
3369;SDS011;42042;51.948;7.628;2023-06-26T12:04:28;6.67;;;3.80;;
3369;SDS011;42042;51.948;7.628;2023-06-26T12:06:56;4.33;;;3.93;;
3369;SDS011;42042;51.948;7.628;2023-06-26T12:09:23;3.93;;;3.53;;
3369;SDS011;42042;51.948;7.628;2023-06-26T12:11:51;5.73;;;4.00;;
3369;SDS011;42042;51.948;7.628;2023-06-26T12:14:19;5.77;;;3.80;;
3369;SDS011;42042;51.948;7.628;2023-06-26T12:16:48;8.90;;;4.20;;
3369;SDS011;42042;51.948;7.628;2023-06-26T12:19:15;5.10;;;3.70;;
3369;SDS011;42042;51.948;7.628;2023-06-26T12:21:47;5.60;;;3.10;;
3369;SDS011;42042;51.948;7.628;2023-06-26T12:24:17;3.30;;;2.77;;
3369;SDS011;42042;51.948;7.628;2023-06-26T12:26:45;3.73;;;3.30;;
3369;SDS011;42042;51.948;7.628;2023-06-26T12:29:13;5.63;;;3.30;;
3369;SDS011;42042;51.948;7.628;2023-06-26T12:31:42;4.70;;;3.17;;
3369;SDS011;42042;51.948;7.628;2023-06-26T12:34:11;3.60;;;2.77;;
3369;SDS011;42042;51.948;7.628;2023-06-26T12:36:42;6.97;;;3.33;;
3369;SDS011;42042;51.948;7.628;2023-06-26T12:39:10;4.63;;;2.60;;
3369;SDS011;42042;51.948;7.628;2023-06-26T12:41:47;5.40;;;2.73;;
3369;SDS011;42042;51.948;7.628;2023-06-26T12:44:18;7.67;;;2.53;;
3369;SDS011;42042;51.948;7.628;2023-06-26T12:46:46;5.80;;;2.30;;
3369;SDS011;42042;51.948;7.628;2023-06-26T12:49:15;4.20;;;2.50;;
3369;SDS011;42042;51.948;7.628;2023-06-26T12:51:42;2.97;;;2.40;;
3369;SDS011;42042;51.948;7.628;2023-06-26T12:54:10;3.13;;;2.30;;
3369;SDS011;42042;51.948;7.628;2023-06-26T12:56:37;4.30;;;2.20;;
3369;SDS011;42042;51.948;7.628;2023-06-26T12:59:04;4.60;;;1.90;;
3369;SDS011;42042;51.948;7.628;2023-06-26T13:01:31;3.53;;;2.43;;
3369;SDS011;42042;51.948;7.628;2023-06-26T13:03:59;3.10;;;2.80;;
3369;SDS011;42042;51.948;7.628;2023-06-26T13:06:27;6.30;;;2.70;;
3369;SDS011;42042;51.948;7.628;2023-06-26T13:08:55;3.10;;;2.60;;
3369;SDS011;42042;51.948;7.628;2023-06-26T13:11:22;4.90;;;2.30;;
3369;SDS011;42042;51.948;7.628;2023-06-26T13:13:49;4.87;;;2.27;;
3369;SDS011;42042;51.948;7.628;2023-06-26T13:16:16;4.53;;;2.00;;
3369;SDS011;42042;51.948;7.628;2023-06-26T13:18:44;2.10;;;1.90;;
3369;SDS011;42042;51.948;7.628;2023-06-26T13:21:12;5.43;;;2.57;;
3369;SDS011;42042;51.948;7.628;2023-06-26T13:23:40;4.50;;;2.07;;
3369;SDS011;42042;51.948;7.628;2023-06-26T13:26:08;3.50;;;2.10;;
3369;SDS011;42042;51.948;7.628;2023-06-26T13:28:35;2.73;;;2.17;;
3369;SDS011;42042;51.948;7.628;2023-06-26T13:31:02;4.13;;;1.90;;
3369;SDS011;42042;51.948;7.628;2023-06-26T13:33:29;4.43;;;2.17;;
3369;SDS011;42042;51.948;7.628;2023-06-26T13:35:57;6.40;;;2.53;;
3369;SDS011;42042;51.948;7.628;2023-06-26T13:38:24;4.73;;;2.50;;
3369;SDS011;42042;51.948;7.628;2023-06-26T13:40:53;12.17;;;2.53;;
3369;SDS011;42042;51.948;7.628;2023-06-26T13:43:22;3.27;;;1.97;;
3369;SDS011;42042;51.948;7.628;2023-06-26T13:45:49;3.10;;;2.10;;
3369;SDS011;42042;51.948;7.628;2023-06-26T13:48:16;4.43;;;1.80;;
3369;SDS011;42042;51.948;7.628;2023-06-26T13:50:44;3.97;;;2.13;;
3369;SDS011;42042;51.948;7.628;2023-06-26T13:53:12;4.80;;;2.30;;
3369;SDS011;42042;51.948;7.628;2023-06-26T13:55:39;5.17;;;1.93;;
3369;SDS011;42042;51.948;7.628;2023-06-26T13:58:09;2.83;;;1.73;;
3369;SDS011;42042;51.948;7.628;2023-06-26T14:00:36;5.90;;;2.00;;
3369;SDS011;42042;51.948;7.628;2023-06-26T14:03:04;5.13;;;2.17;;
3369;SDS011;42042;51.948;7.628;2023-06-26T14:05:31;2.40;;;1.57;;
3369;SDS011;42042;51.948;7.628;2023-06-26T14:07:59;3.20;;;2.43;;
3369;SDS011;42042;51.948;7.628;2023-06-26T14:10:26;5.30;;;2.10;;
3369;SDS011;42042;51.948;7.628;2023-06-26T14:12:53;3.90;;;2.87;;
3369;SDS011;42042;51.948;7.628;2023-06-26T14:15:22;3.33;;;2.03;;
3369;SDS011;42042;51.948;7.628;2023-06-26T14:17:49;2.50;;;2.30;;
3369;SDS011;42042;51.948;7.628;2023-06-26T14:20:17;2.17;;;2.00;;
3369;SDS011;42042;51.948;7.628;2023-06-26T14:22:47;5.43;;;2.00;;
3369;SDS011;42042;51.948;7.628;2023-06-26T14:25:15;7.93;;;2.30;;
3369;SDS011;42042;51.948;7.628;2023-06-26T14:27:43;5.37;;;2.20;;
3369;SDS011;42042;51.948;7.628;2023-06-26T14:30:10;2.73;;;2.00;;
3369;SDS011;42042;51.948;7.628;2023-06-26T14:32:39;4.70;;;1.97;;
3369;SDS011;42042;51.948;7.628;2023-06-26T14:35:06;2.50;;;2.00;;
3369;SDS011;42042;51.948;7.628;2023-06-26T14:37:35;3.37;;;1.63;;
3369;SDS011;42042;51.948;7.628;2023-06-26T14:40:04;3.47;;;1.80;;
3369;SDS011;42042;51.948;7.628;2023-06-26T14:42:32;4.80;;;2.00;;
3369;SDS011;42042;51.948;7.628;2023-06-26T14:44:59;2.03;;;1.80;;
3369;SDS011;42042;51.948;7.628;2023-06-26T14:47:27;2.03;;;1.67;;
3369;SDS011;42042;51.948;7.628;2023-06-26T14:49:55;2.27;;;1.57;;
3369;SDS011;42042;51.948;7.628;2023-06-26T14:52:22;2.17;;;1.70;;
3369;SDS011;42042;51.948;7.628;2023-06-26T14:54:49;10.83;;;2.60;;